createdAt,value
2019-05-10T00:00:58.990Z,100.00
2019-05-10T00:03:48.569Z,100.00
2019-05-10T00:06:37.795Z,100.00
2019-05-10T00:09:09.050Z,100.00
2019-05-10T00:11:49.332Z,100.00
2019-05-10T00:14:25.580Z,100.00
2019-05-10T00:16:58.108Z,100.00
2019-05-10T00:19:29.514Z,100.00
2019-05-10T00:22:01.328Z,100.00
2019-05-10T00:24:33.049Z,100.00
2019-05-10T00:27:04.834Z,100.00
2019-05-10T00:29:36.465Z,100.00
2019-05-10T00:32:08.157Z,100.00
2019-05-10T00:34:40.755Z,100.00
2019-05-10T00:37:12.483Z,100.00
2019-05-10T00:39:44.998Z,100.00
2019-05-10T00:42:16.655Z,100.00
2019-05-10T00:44:48.300Z,100.00
2019-05-10T00:47:19.935Z,100.00
2019-05-10T00:49:51.753Z,100.00
2019-05-10T00:52:23.467Z,100.00
2019-05-10T00:54:55.237Z,100.00
2019-05-10T00:57:26.980Z,100.00
2019-05-10T00:59:58.639Z,100.00
2019-05-10T01:02:30.247Z,100.00
2019-05-10T01:05:02.055Z,100.00
2019-05-10T01:07:33.707Z,100.00
2019-05-10T01:10:08.810Z,100.00
2019-05-10T01:12:40.600Z,100.00
2019-05-10T01:15:12.433Z,100.00
2019-05-10T01:17:44.238Z,100.00
2019-05-10T01:20:15.961Z,100.00
2019-05-10T01:22:47.676Z,100.00
2019-05-10T01:25:34.031Z,100.00
2019-05-10T01:27:52.872Z,100.00
2019-05-10T01:30:24.628Z,100.00
2019-05-10T01:32:56.531Z,100.00
2019-05-10T01:35:28.256Z,100.00
2019-05-10T01:37:59.843Z,100.00
2019-05-10T01:40:31.519Z,100.00
2019-05-10T01:43:03.223Z,100.00
2019-05-10T01:45:34.816Z,100.00
2019-05-10T01:48:06.528Z,100.00
2019-05-10T01:50:38.189Z,100.00
2019-05-10T01:53:09.901Z,100.00
2019-05-10T01:55:51.534Z,100.00
2019-05-10T01:58:14.901Z,100.00
2019-05-10T02:00:46.537Z,100.00
2019-05-10T02:03:18.202Z,100.00
2019-05-10T02:05:49.834Z,100.00
2019-05-10T02:08:21.686Z,100.00
2019-05-10T02:10:53.391Z,100.00
2019-05-10T02:13:24.931Z,100.00
2019-05-10T02:15:56.664Z,100.00
2019-05-10T02:18:28.520Z,100.00
2019-05-10T02:21:00.324Z,100.00
2019-05-10T02:23:32.093Z,100.00
2019-05-10T02:26:09.540Z,100.00
2019-05-10T02:28:37.078Z,100.00
2019-05-10T02:31:08.636Z,100.00
2019-05-10T02:33:40.380Z,100.00
2019-05-10T02:36:12.068Z,100.00
2019-05-10T02:38:43.824Z,100.00
2019-05-10T02:41:15.690Z,100.00
2019-05-10T02:43:47.393Z,100.00
2019-05-10T02:46:19.116Z,100.00
2019-05-10T02:48:50.745Z,100.00
2019-05-10T02:51:22.360Z,100.00
2019-05-10T02:53:54.370Z,100.00
2019-05-10T02:56:31.457Z,100.00
2019-05-10T02:59:01.557Z,100.00
2019-05-10T03:01:34.687Z,100.00
2019-05-10T03:04:06.377Z,100.00
2019-05-10T03:06:41.191Z,100.00
2019-05-10T03:09:14.194Z,100.00
2019-05-10T03:11:47.906Z,100.00
2019-05-10T03:14:20.406Z,100.00
2019-05-10T03:16:52.241Z,100.00
2019-05-10T03:19:24.741Z,100.00
2019-05-10T03:22:07.096Z,100.00
2019-05-10T03:24:38.943Z,100.00
2019-05-10T03:27:10.631Z,100.00
2019-05-10T03:29:42.383Z,100.00
2019-05-10T03:32:14.181Z,100.00
2019-05-10T03:34:46.139Z,100.00
2019-05-10T03:37:18.018Z,100.00
2019-05-10T03:39:49.874Z,100.00
2019-05-10T03:42:21.743Z,100.00
2019-05-10T03:44:53.778Z,100.00
2019-05-10T03:47:25.535Z,100.00
2019-05-10T03:49:57.339Z,100.00
2019-05-10T03:52:29.221Z,100.00
2019-05-10T03:55:03.259Z,100.00
2019-05-10T03:57:34.902Z,100.00
2019-05-10T04:00:14.276Z,100.00
2019-05-10T04:02:46.172Z,100.00
2019-05-10T04:05:18.384Z,100.00
2019-05-10T04:07:50.283Z,100.00
2019-05-10T04:10:22.155Z,100.00
2019-05-10T04:12:53.742Z,100.00
2019-05-10T04:15:25.581Z,100.00
2019-05-10T04:17:57.224Z,100.00
2019-05-10T04:20:28.841Z,100.00
2019-05-10T04:23:01.436Z,100.00
2019-05-10T04:25:35.511Z,100.00
2019-05-10T04:28:08.775Z,100.00
2019-05-10T04:30:40.720Z,100.00
2019-05-10T04:33:13.055Z,100.00
2019-05-10T04:35:44.929Z,100.00
2019-05-10T04:38:18.014Z,100.00
2019-05-10T04:40:49.706Z,100.00
2019-05-10T04:43:21.430Z,100.00
2019-05-10T04:45:53.027Z,100.00
2019-05-10T04:48:26.116Z,100.00
2019-05-10T04:50:57.791Z,100.00
2019-05-10T04:53:29.437Z,100.00
2019-05-10T04:56:01.108Z,100.00
2019-05-10T04:58:32.662Z,100.00
2019-05-10T05:01:04.373Z,100.00
2019-05-10T05:03:36.140Z,100.00
2019-05-10T05:06:07.829Z,100.00
2019-05-10T05:08:39.631Z,98.92
2019-05-10T05:11:11.375Z,97.56
2019-05-10T05:13:45.330Z,96.35
2019-05-10T05:16:18.247Z,94.91
2019-05-10T05:18:50.187Z,93.31
2019-05-10T05:21:21.894Z,93.53
2019-05-10T05:23:53.529Z,92.79
2019-05-10T05:26:25.136Z,92.24
2019-05-10T05:28:56.959Z,92.45
2019-05-10T05:31:28.739Z,93.44
2019-05-10T05:34:05.069Z,93.41
2019-05-10T05:36:33.960Z,93.48
2019-05-10T05:39:07.688Z,94.21
2019-05-10T05:41:48.729Z,95.64
2019-05-10T05:44:14.047Z,93.84
2019-05-10T05:46:46.795Z,92.95
2019-05-10T05:49:18.603Z,93.16
2019-05-10T05:51:50.247Z,93.07
2019-05-10T05:54:22.643Z,91.25
2019-05-10T05:56:54.820Z,88.72
2019-05-10T05:59:27.619Z,88.36
2019-05-10T06:02:00.889Z,87.12
2019-05-10T06:04:32.694Z,86.04
2019-05-10T06:07:05.600Z,84.39
2019-05-10T06:09:39.379Z,82.40
2019-05-10T06:12:12.806Z,81.48
2019-05-10T06:14:49.791Z,81.33
2019-05-10T06:17:18.042Z,80.20
2019-05-10T06:19:49.892Z,77.89
2019-05-10T06:22:21.609Z,78.24
2019-05-10T06:24:53.984Z,78.74
2019-05-10T06:27:25.983Z,77.99
2019-05-10T06:29:58.648Z,78.93
2019-05-10T06:32:37.902Z,78.42
2019-05-10T06:35:14.207Z,77.68
2019-05-10T06:37:42.922Z,76.96
2019-05-10T06:40:15.084Z,74.84
2019-05-10T06:42:46.654Z,73.32
2019-05-10T06:45:18.319Z,72.53
2019-05-10T06:47:53.287Z,71.09
2019-05-10T06:50:30.389Z,68.25
2019-05-10T06:53:00.399Z,66.91
2019-05-10T06:55:29.878Z,66.96
2019-05-10T06:58:01.441Z,63.61
2019-05-10T07:00:38.233Z,65.61
2019-05-10T07:03:06.335Z,65.30
2019-05-10T07:05:38.526Z,64.39
2019-05-10T07:08:19.753Z,64.21
2019-05-10T07:10:43.465Z,62.48
2019-05-10T07:13:15.073Z,60.22
2019-05-10T07:15:46.546Z,61.76
2019-05-10T07:18:22.663Z,59.61
2019-05-10T07:20:52.985Z,56.28
2019-05-10T07:23:24.590Z,57.34
2019-05-10T07:25:56.156Z,57.28
2019-05-10T07:28:28.694Z,56.60
2019-05-10T07:31:00.717Z,58.91
2019-05-10T07:33:37.234Z,58.35
2019-05-10T07:36:14.399Z,54.09
2019-05-10T07:38:39.983Z,54.57
2019-05-10T07:41:19.593Z,56.51
2019-05-10T07:43:48.308Z,55.40
2019-05-10T07:46:21.389Z,55.24
2019-05-10T07:48:57.828Z,57.35
2019-05-10T07:51:30.483Z,56.63
2019-05-10T07:54:04.750Z,56.08
2019-05-10T07:56:38.980Z,55.83
2019-05-10T07:59:08.732Z,57.34
2019-05-10T08:01:40.301Z,55.59
2019-05-10T08:04:13.143Z,57.09
2019-05-10T08:06:51.137Z,56.80
2019-05-10T08:09:21.446Z,56.03
2019-05-10T08:11:54.011Z,57.55
2019-05-10T08:14:28.812Z,58.33
2019-05-10T08:17:05.860Z,59.13
2019-05-10T08:19:37.649Z,60.12
2019-05-10T08:22:10.233Z,61.33
2019-05-10T08:24:46.521Z,61.17
2019-05-10T08:27:23.021Z,60.82
2019-05-10T08:30:19.661Z,57.17
2019-05-10T08:32:30.031Z,54.17
2019-05-10T08:35:05.031Z,56.92
2019-05-10T08:37:38.146Z,56.50
2019-05-10T08:40:35.157Z,59.64
2019-05-10T08:43:16.659Z,61.67
2019-05-10T08:45:49.542Z,61.46
2019-05-10T08:48:20.006Z,63.19
2019-05-10T08:50:57.122Z,63.45
2019-05-10T08:53:25.044Z,62.54
2019-05-10T08:55:58.797Z,62.42
2019-05-10T08:58:36.977Z,63.62
2019-05-10T09:01:20.084Z,65.65
2019-05-10T09:03:38.264Z,66.18
2019-05-10T09:06:14.283Z,65.73
2019-05-10T09:08:43.408Z,66.07
2019-05-10T09:11:16.391Z,66.22
2019-05-10T09:13:48.835Z,66.99
2019-05-10T09:16:23.677Z,66.87
2019-05-10T09:18:56.884Z,67.89
2019-05-10T09:21:29.183Z,68.80
2019-05-10T09:24:06.242Z,69.13
2019-05-10T09:26:34.906Z,69.35
2019-05-10T09:29:06.575Z,70.43
2019-05-10T09:31:39.382Z,68.28
2019-05-10T09:34:12.297Z,67.87
2019-05-10T09:36:47.018Z,67.28
2019-05-10T09:39:21.783Z,67.60
2019-05-10T09:41:52.753Z,66.37
2019-05-10T09:44:24.092Z,65.48
2019-05-10T09:46:55.737Z,64.59
2019-05-10T09:49:27.574Z,65.75
2019-05-10T09:52:04.497Z,64.65
2019-05-10T09:54:33.822Z,64.44
2019-05-10T09:57:08.058Z,64.18
2019-05-10T09:59:38.813Z,65.62
2019-05-10T10:02:16.481Z,66.06
2019-05-10T10:04:47.220Z,66.73
2019-05-10T10:07:24.271Z,66.45
2019-05-10T10:09:53.986Z,66.12
2019-05-10T10:12:25.519Z,66.12
2019-05-10T10:14:57.036Z,63.87
2019-05-10T10:17:30.727Z,64.07
2019-05-10T10:20:02.463Z,64.61
2019-05-10T10:22:34.672Z,64.95
2019-05-10T10:25:08.108Z,64.58
2019-05-10T10:27:39.815Z,63.56
2019-05-10T10:30:14.962Z,63.45
2019-05-10T10:32:47.706Z,64.04
2019-05-10T10:35:26.570Z,62.79
2019-05-10T10:37:57.337Z,60.70
2019-05-10T10:40:27.847Z,61.11
2019-05-10T10:42:59.643Z,58.33
2019-05-10T10:45:31.145Z,57.93
2019-05-10T10:48:10.699Z,58.67
2019-05-10T10:50:36.028Z,57.34
2019-05-10T10:53:08.356Z,58.10
2019-05-10T10:55:40.345Z,57.50
2019-05-10T10:58:12.621Z,53.86
2019-05-10T11:00:44.156Z,56.89
2019-05-10T11:03:15.694Z,54.55
2019-05-10T11:05:47.265Z,55.84
2019-05-10T11:08:18.886Z,56.73
2019-05-10T11:10:50.809Z,57.08
2019-05-10T11:13:40.577Z,56.29
2019-05-10T11:15:58.847Z,55.66
2019-05-10T11:18:31.788Z,55.87
2019-05-10T11:21:03.108Z,57.49
2019-05-10T11:23:38.991Z,59.18
2019-05-10T11:26:07.886Z,62.71
2019-05-10T11:28:43.887Z,62.71
2019-05-10T11:31:12.765Z,61.90
2019-05-10T11:33:47.378Z,62.43
2019-05-10T11:36:17.743Z,64.75
2019-05-10T11:38:56.534Z,61.49
2019-05-10T11:41:24.633Z,61.67
2019-05-10T11:43:58.068Z,61.84
2019-05-10T11:46:31.123Z,62.49
2019-05-10T11:49:04.719Z,64.73
2019-05-10T11:51:37.362Z,64.71
2019-05-10T11:54:11.017Z,61.91
2019-05-10T11:56:43.203Z,61.39
2019-05-10T11:59:16.533Z,60.39
2019-05-10T12:01:55.089Z,61.00
2019-05-10T12:04:28.962Z,54.92
2019-05-10T12:06:54.920Z,55.09
2019-05-10T12:09:26.519Z,55.92
2019-05-10T12:11:58.151Z,56.73
2019-05-10T12:14:30.739Z,57.42
2019-05-10T12:17:06.320Z,57.03
2019-05-10T12:19:44.547Z,58.09
2019-05-10T12:22:15.473Z,58.10
2019-05-10T12:24:53.972Z,57.13
2019-05-10T12:27:25.514Z,57.39
2019-05-10T12:29:55.438Z,57.75
2019-05-10T12:32:27.034Z,57.20
2019-05-10T12:34:57.929Z,55.19
2019-05-10T12:37:30.797Z,53.60
2019-05-10T12:40:09.787Z,53.54
2019-05-10T12:42:36.597Z,54.51
2019-05-10T12:45:10.188Z,54.63
2019-05-10T12:47:41.842Z,53.19
2019-05-10T12:50:16.398Z,54.94
2019-05-10T12:52:53.544Z,54.84
2019-05-10T12:55:21.295Z,54.62
2019-05-10T12:57:53.165Z,55.92
2019-05-10T13:00:24.914Z,55.80
2019-05-10T13:03:11.526Z,53.26
2019-05-10T13:05:33.949Z,53.36
2019-05-10T13:08:11.640Z,52.99
2019-05-10T13:10:45.845Z,53.44
2019-05-10T13:13:17.553Z,54.84
2019-05-10T13:15:49.783Z,53.75
2019-05-10T13:18:23.102Z,52.93
2019-05-10T13:20:55.059Z,51.83
2019-05-10T13:23:26.975Z,49.78
2019-05-10T13:25:59.207Z,51.81
2019-05-10T13:28:32.613Z,54.88
2019-05-10T13:31:05.553Z,55.58
2019-05-10T13:33:42.111Z,55.25
2019-05-10T13:36:11.887Z,54.61
2019-05-10T13:38:48.569Z,54.91
2019-05-10T13:41:24.457Z,55.61
2019-05-10T13:43:52.002Z,54.75
2019-05-10T13:46:23.950Z,55.79
2019-05-10T13:48:55.690Z,57.01
2019-05-10T13:51:27.288Z,57.00
2019-05-10T13:54:00.838Z,57.46
2019-05-10T13:56:34.319Z,56.95
2019-05-10T13:59:15.385Z,58.62
2019-05-10T14:01:44.227Z,60.08
2019-05-10T14:04:23.264Z,59.71
2019-05-10T14:06:57.770Z,59.93
2019-05-10T14:09:29.718Z,58.74
2019-05-10T14:12:01.315Z,63.59
2019-05-10T14:14:35.499Z,66.28
2019-05-10T14:17:07.267Z,67.43
2019-05-10T14:19:39.316Z,67.93
2019-05-10T14:22:11.614Z,68.99
2019-05-10T14:24:46.791Z,69.73
2019-05-10T14:27:16.557Z,70.46
2019-05-10T14:29:48.218Z,73.15
2019-05-10T14:32:19.945Z,74.75
2019-05-10T14:34:51.698Z,75.98
2019-05-10T14:37:23.252Z,77.29
2019-05-10T14:39:54.889Z,78.01
2019-05-10T14:42:31.079Z,78.51
2019-05-10T14:45:00.124Z,79.70
2019-05-10T14:47:31.620Z,79.79
2019-05-10T14:50:04.056Z,79.44
2019-05-10T14:52:36.139Z,79.09
2019-05-10T14:55:07.790Z,78.79
2019-05-10T14:57:39.299Z,78.57
2019-05-10T15:00:11.577Z,77.81
2019-05-10T15:02:44.894Z,77.72
2019-05-10T15:05:18.276Z,77.27
2019-05-10T15:07:51.186Z,76.85
2019-05-10T15:10:23.302Z,77.07
2019-05-10T15:12:56.040Z,76.72
2019-05-10T15:15:30.940Z,77.43
2019-05-10T15:18:02.223Z,77.08
2019-05-10T15:20:36.094Z,78.25
2019-05-10T15:23:07.467Z,77.76
2019-05-10T15:25:55.773Z,76.57
2019-05-10T15:28:15.520Z,76.16
2019-05-10T15:30:52.582Z,75.76
2019-05-10T15:33:26.059Z,74.62
2019-05-10T15:35:58.747Z,75.97
2019-05-10T15:38:30.389Z,75.05
2019-05-10T15:41:02.016Z,74.13
2019-05-10T15:43:35.181Z,73.91
2019-05-10T15:46:07.531Z,73.93
2019-05-10T15:48:41.689Z,73.74
2019-05-10T15:51:16.900Z,73.89
2019-05-10T15:53:46.756Z,74.18
2019-05-10T15:56:21.622Z,73.86
2019-05-10T15:58:53.129Z,73.90
2019-05-10T16:01:29.182Z,74.29
2019-05-10T16:04:02.099Z,75.00
2019-05-10T16:06:37.816Z,75.93
2019-05-10T16:09:16.903Z,76.50
2019-05-10T16:11:42.215Z,76.90
2019-05-10T16:14:13.775Z,76.78
2019-05-10T16:16:48.779Z,76.98
2019-05-10T16:19:22.059Z,76.94
2019-05-10T16:21:58.117Z,76.86
2019-05-10T16:24:29.193Z,77.38
2019-05-10T16:27:02.858Z,77.94
2019-05-10T16:29:39.717Z,78.74
2019-05-10T16:32:13.059Z,79.32
2019-05-10T16:34:47.993Z,79.95
2019-05-10T16:37:20.698Z,80.45
2019-05-10T16:39:55.408Z,81.04
2019-05-10T16:42:28.002Z,81.59
2019-05-10T16:45:02.036Z,82.41
2019-05-10T16:47:33.941Z,83.04
2019-05-10T16:50:08.631Z,83.62
2019-05-10T16:52:40.273Z,84.00
2019-05-10T16:55:14.429Z,84.72
2019-05-10T16:57:47.538Z,84.75
2019-05-10T17:00:19.456Z,84.94
2019-05-10T17:02:51.278Z,85.70
2019-05-10T17:05:23.023Z,85.93
2019-05-10T17:07:58.824Z,86.37
2019-05-10T17:10:32.932Z,86.62
2019-05-10T17:13:05.027Z,86.76
2019-05-10T17:15:39.688Z,86.78
2019-05-10T17:18:16.679Z,86.84
2019-05-10T17:20:50.945Z,87.47
2019-05-10T17:23:22.758Z,88.22
2019-05-10T17:25:55.201Z,88.72
2019-05-10T17:28:29.583Z,89.06
2019-05-10T17:31:07.910Z,89.73
2019-05-10T17:33:42.687Z,91.83
2019-05-10T17:36:14.446Z,93.31
2019-05-10T17:38:53.401Z,94.86
2019-05-10T17:41:26.961Z,95.63
2019-05-10T17:44:00.056Z,95.92
2019-05-10T17:46:36.314Z,95.84
2019-05-10T17:49:08.019Z,95.83
2019-05-10T17:51:41.810Z,95.98
2019-05-10T17:54:13.551Z,95.90
2019-05-10T17:56:45.319Z,95.88
2019-05-10T17:59:21.825Z,95.92
2019-05-10T18:01:54.678Z,95.99
2019-05-10T18:04:27.779Z,96.00
2019-05-10T18:07:00.623Z,96.08
2019-05-10T18:09:35.697Z,96.02
2019-05-10T18:12:15.664Z,96.05
2019-05-10T18:14:50.141Z,96.13
2019-05-10T18:17:25.973Z,96.33
2019-05-10T18:20:02.352Z,96.79
2019-05-10T18:22:43.318Z,97.10
2019-05-10T18:25:19.554Z,97.25
2019-05-10T18:27:48.029Z,97.40
2019-05-10T18:30:24.531Z,97.57
2019-05-10T18:33:00.493Z,97.74
2019-05-10T18:35:37.199Z,97.96
2019-05-10T18:38:14.903Z,98.13
2019-05-10T18:40:47.636Z,98.49
2019-05-10T18:43:19.348Z,98.72
2019-05-10T18:45:54.079Z,99.04
2019-05-10T18:48:29.829Z,99.37
2019-05-10T18:51:04.650Z,99.75
2019-05-10T18:53:36.315Z,100.00
2019-05-10T18:56:11.373Z,100.00
2019-05-10T18:58:44.924Z,100.00
2019-05-10T19:01:38.850Z,100.00
2019-05-10T19:04:07.183Z,100.00
2019-05-10T19:06:50.008Z,100.00
2019-05-10T19:09:20.489Z,100.00
2019-05-10T19:11:58.404Z,100.00
2019-05-10T19:14:35.221Z,100.00
2019-05-10T19:17:09.440Z,100.00
2019-05-10T19:19:42.484Z,100.00
2019-05-10T19:22:14.650Z,100.00
2019-05-10T19:24:56.676Z,100.00
2019-05-10T19:27:29.825Z,100.00
2019-05-10T19:30:01.439Z,100.00
2019-05-10T19:32:39.214Z,100.00
2019-05-10T19:35:11.147Z,100.00
2019-05-10T19:37:43.232Z,100.00
2019-05-10T19:40:18.031Z,100.00
2019-05-10T19:42:49.832Z,100.00
2019-05-10T19:45:21.966Z,100.00
2019-05-10T19:47:55.787Z,100.00
2019-05-10T19:50:31.380Z,100.00
2019-05-10T19:53:05.481Z,100.00
2019-05-10T19:55:37.526Z,100.00
2019-05-10T19:58:09.298Z,100.00
2019-05-10T20:00:41.963Z,100.00
2019-05-10T20:03:14.182Z,100.00
2019-05-10T20:05:45.983Z,100.00
2019-05-10T20:08:18.642Z,100.00
2019-05-10T20:10:51.133Z,100.00
2019-05-10T20:13:24.454Z,100.00
2019-05-10T20:15:56.356Z,100.00
2019-05-10T20:18:30.552Z,100.00
2019-05-10T20:21:04.181Z,100.00
2019-05-10T20:23:35.776Z,100.00
2019-05-10T20:26:07.676Z,100.00
2019-05-10T20:28:39.445Z,100.00
2019-05-10T20:31:12.598Z,100.00
2019-05-10T20:33:48.841Z,100.00
2019-05-10T20:36:20.687Z,100.00
2019-05-10T20:38:52.786Z,100.00
2019-05-10T20:41:24.546Z,100.00
2019-05-10T20:43:56.855Z,100.00
2019-05-10T20:46:28.569Z,100.00
2019-05-10T20:49:01.753Z,100.00
2019-05-10T20:51:33.486Z,100.00
2019-05-10T20:54:06.967Z,100.00
2019-05-10T20:56:38.818Z,100.00
2019-05-10T20:59:10.584Z,100.00
2019-05-10T21:01:45.660Z,100.00
2019-05-10T21:04:19.921Z,100.00
2019-05-10T21:06:53.155Z,100.00
2019-05-10T21:09:30.541Z,100.00
2019-05-10T21:12:03.511Z,100.00
2019-05-10T21:14:38.300Z,100.00
2019-05-10T21:17:10.149Z,100.00
2019-05-10T21:19:43.846Z,100.00
2019-05-10T21:22:15.483Z,100.00
2019-05-10T21:24:50.633Z,100.00
2019-05-10T21:27:26.474Z,100.00
2019-05-10T21:29:58.261Z,100.00
2019-05-10T21:32:30.105Z,100.00
2019-05-10T21:35:01.734Z,100.00
2019-05-10T21:37:33.453Z,100.00
2019-05-10T21:40:07.787Z,100.00
2019-05-10T21:42:41.240Z,100.00
2019-05-10T21:45:15.219Z,100.00
2019-05-10T21:47:51.777Z,100.00
2019-05-10T21:50:20.639Z,100.00
2019-05-10T21:52:53.776Z,100.00
2019-05-10T21:55:27.072Z,100.00
2019-05-10T21:57:59.058Z,100.00
2019-05-10T22:00:34.018Z,100.00
2019-05-10T22:03:06.608Z,100.00
2019-05-10T22:05:38.878Z,100.00
2019-05-10T22:08:10.618Z,100.00
2019-05-10T22:10:42.410Z,100.00
2019-05-10T22:13:14.373Z,100.00
2019-05-10T22:15:46.110Z,100.00
2019-05-10T22:18:17.899Z,100.00
2019-05-10T22:20:49.710Z,100.00
2019-05-10T22:23:21.564Z,100.00
2019-05-10T22:25:53.295Z,100.00
2019-05-10T22:28:24.895Z,100.00
2019-05-10T22:30:56.574Z,100.00
2019-05-10T22:33:28.275Z,100.00
2019-05-10T22:36:00.182Z,100.00
2019-05-10T22:38:31.893Z,100.00
2019-05-10T22:41:03.749Z,100.00
2019-05-10T22:43:35.499Z,100.00
2019-05-10T22:46:07.199Z,100.00
2019-05-10T22:48:38.960Z,100.00
2019-05-10T22:51:10.718Z,100.00
2019-05-10T22:53:42.349Z,100.00
2019-05-10T22:56:13.965Z,100.00
2019-05-10T22:58:45.664Z,100.00
2019-05-10T23:01:17.494Z,100.00
2019-05-10T23:03:49.255Z,100.00
2019-05-10T23:06:20.987Z,100.00
2019-05-10T23:08:52.796Z,100.00
2019-05-10T23:11:24.620Z,100.00
2019-05-10T23:13:56.445Z,100.00
2019-05-10T23:16:29.889Z,100.00
2019-05-10T23:19:01.688Z,100.00
2019-05-10T23:21:33.329Z,100.00
2019-05-10T23:24:06.824Z,100.00
2019-05-10T23:26:39.582Z,100.00
2019-05-10T23:29:11.256Z,100.00
2019-05-10T23:31:42.968Z,100.00
2019-05-10T23:34:14.999Z,100.00
2019-05-10T23:36:46.675Z,100.00
2019-05-10T23:39:18.433Z,100.00
2019-05-10T23:41:50.146Z,100.00
2019-05-10T23:44:21.995Z,100.00
2019-05-10T23:46:54.313Z,100.00
2019-05-10T23:49:26.007Z,100.00
2019-05-10T23:51:57.720Z,100.00
2019-05-10T23:54:29.691Z,100.00
2019-05-10T23:57:02.728Z,100.00
2019-05-10T23:59:34.515Z,100.00
